createdAt,value
2017-01-11T00:00:25.528Z,0
2017-01-11T00:01:25.533Z,0
2017-01-11T00:02:25.833Z,0
2017-01-11T00:03:25.613Z,0
2017-01-11T00:04:25.948Z,0
2017-01-11T00:05:25.616Z,0
2017-01-11T00:06:25.581Z,0
2017-01-11T00:07:25.503Z,0
2017-01-11T00:08:26.351Z,0
2017-01-11T00:09:25.724Z,0
2017-01-11T00:10:25.634Z,0
2017-01-11T00:11:25.679Z,0
2017-01-11T00:12:25.549Z,0
2017-01-11T00:13:25.720Z,0
2017-01-11T00:14:25.516Z,0
2017-01-11T00:15:25.479Z,0
2017-01-11T00:16:26.384Z,0
2017-01-11T00:17:26.181Z,0
2017-01-11T00:18:25.621Z,0
2017-01-11T00:19:25.650Z,0
2017-01-11T00:20:25.842Z,0
2017-01-11T00:21:25.483Z,0
2017-01-11T00:22:26.498Z,0
2017-01-11T00:23:25.581Z,0
2017-01-11T00:24:25.698Z,0
2017-01-11T00:25:25.519Z,0
2017-01-11T00:26:25.512Z,0
2017-01-11T00:27:25.531Z,0
2017-01-11T00:28:26.283Z,0
2017-01-11T00:29:25.960Z,0
2017-01-11T00:30:25.553Z,0
2017-01-11T00:31:25.777Z,0
2017-01-11T00:32:26.196Z,0
2017-01-11T00:33:25.570Z,0
2017-01-11T00:34:25.508Z,0
2017-01-11T00:35:25.694Z,0
2017-01-11T00:36:25.580Z,0
2017-01-11T00:37:25.560Z,0
2017-01-11T00:38:25.687Z,0
2017-01-11T00:39:25.611Z,0
2017-01-11T00:40:25.736Z,0
2017-01-11T00:41:25.591Z,0
2017-01-11T00:42:25.934Z,0
2017-01-11T00:43:25.703Z,0
2017-01-11T00:44:25.930Z,0
2017-01-11T00:45:25.947Z,0
2017-01-11T00:46:25.543Z,0
2017-01-11T00:47:25.813Z,0
2017-01-11T00:48:25.769Z,0
2017-01-11T00:49:25.831Z,0
2017-01-11T00:50:25.605Z,0
2017-01-11T00:51:25.703Z,0
2017-01-11T00:52:25.596Z,0
2017-01-11T00:53:25.876Z,0
2017-01-11T00:54:26.258Z,0
2017-01-11T00:55:25.718Z,0
2017-01-11T00:56:25.794Z,0
2017-01-11T00:57:25.601Z,0
2017-01-11T00:58:25.558Z,0
2017-01-11T00:59:27.072Z,0
2017-01-11T01:00:25.752Z,0
2017-01-11T01:01:25.598Z,0
2017-01-11T01:02:25.974Z,0
2017-01-11T01:03:25.710Z,0
2017-01-11T01:04:25.736Z,0
2017-01-11T01:05:25.705Z,0
2017-01-11T01:06:25.886Z,0
2017-01-11T01:07:25.523Z,0
2017-01-11T01:08:25.905Z,0
2017-01-11T01:09:25.519Z,0
2017-01-11T01:10:25.762Z,0
2017-01-11T01:11:25.852Z,0
2017-01-11T01:12:25.541Z,0
2017-01-11T01:13:25.912Z,0
2017-01-11T01:14:25.679Z,0
2017-01-11T01:15:25.788Z,0
2017-01-11T01:16:25.832Z,0
2017-01-11T01:17:25.496Z,0
2017-01-11T01:18:25.536Z,0
2017-01-11T01:19:25.548Z,0
2017-01-11T01:20:25.526Z,0
2017-01-11T01:21:25.647Z,0
2017-01-11T01:22:25.839Z,0
2017-01-11T01:23:25.878Z,0
2017-01-11T01:24:25.591Z,0
2017-01-11T01:25:25.631Z,0
2017-01-11T01:26:25.680Z,0
2017-01-11T01:27:25.571Z,0
2017-01-11T01:28:25.654Z,0
2017-01-11T01:29:25.555Z,0
2017-01-11T01:30:25.808Z,0
2017-01-11T01:31:25.601Z,0
2017-01-11T01:32:25.764Z,0
2017-01-11T01:33:25.521Z,0
2017-01-11T01:34:25.601Z,0
2017-01-11T01:35:25.546Z,0
2017-01-11T01:36:25.502Z,0
2017-01-11T01:37:25.528Z,0
2017-01-11T01:38:25.895Z,0
2017-01-11T01:39:25.505Z,0
2017-01-11T01:40:25.556Z,0
2017-01-11T01:41:26.422Z,0
2017-01-11T01:42:25.842Z,0
2017-01-11T01:43:25.675Z,0
2017-01-11T01:44:25.591Z,0
2017-01-11T01:45:25.949Z,0
2017-01-11T01:46:25.934Z,0
2017-01-11T01:47:25.629Z,0
2017-01-11T01:48:25.548Z,0
2017-01-11T01:49:25.801Z,0
2017-01-11T01:50:25.552Z,0
2017-01-11T01:51:25.734Z,0
2017-01-11T01:52:25.616Z,0
2017-01-11T01:53:25.618Z,0
2017-01-11T01:54:25.806Z,0
2017-01-11T01:55:25.605Z,0
2017-01-11T01:56:25.594Z,0
2017-01-11T01:57:25.730Z,0
2017-01-11T01:58:26.258Z,0
2017-01-11T01:59:25.924Z,0
2017-01-11T02:00:25.521Z,0
2017-01-11T02:01:25.530Z,0
2017-01-11T02:02:26.630Z,0
2017-01-11T02:03:25.902Z,0
2017-01-11T02:04:26.285Z,0
2017-01-11T02:05:25.651Z,0
2017-01-11T02:06:25.555Z,0
2017-01-11T02:07:25.699Z,0
2017-01-11T02:08:26.481Z,0
2017-01-11T02:09:25.713Z,0
2017-01-11T02:10:25.646Z,0
2017-01-11T02:11:25.582Z,0
2017-01-11T02:12:25.543Z,0
2017-01-11T02:13:25.624Z,0
2017-01-11T02:14:25.827Z,0
2017-01-11T02:15:37.325Z,0
2017-01-11T02:16:31.536Z,0
2017-01-11T02:17:31.521Z,0
2017-01-11T02:18:25.568Z,0
2017-01-11T02:19:37.276Z,0
2017-01-11T02:20:43.276Z,0
2017-01-11T02:21:25.559Z,0
2017-01-11T02:22:25.534Z,0
2017-01-11T02:23:25.645Z,0
2017-01-11T02:24:26.340Z,0
2017-01-11T02:25:25.749Z,0
2017-01-11T02:26:25.688Z,0
2017-01-11T02:27:25.634Z,0
2017-01-11T02:28:25.613Z,0
2017-01-11T02:29:25.604Z,0
2017-01-11T02:30:25.691Z,0
2017-01-11T02:31:25.531Z,0
2017-01-11T02:32:25.566Z,0
2017-01-11T02:33:25.617Z,0
2017-01-11T02:34:25.767Z,0
2017-01-11T02:35:25.570Z,0
2017-01-11T02:36:25.629Z,0
2017-01-11T02:37:25.606Z,0
2017-01-11T02:38:25.637Z,0
2017-01-11T02:39:25.547Z,0
2017-01-11T02:40:25.577Z,0
2017-01-11T02:41:25.547Z,0
2017-01-11T02:42:25.523Z,0
2017-01-11T02:43:31.372Z,0
2017-01-11T02:44:31.446Z,0
2017-01-11T02:45:31.508Z,0
2017-01-11T02:46:31.324Z,0
2017-01-11T02:48:31.415Z,0
2017-01-11T02:50:25.648Z,0
2017-01-11T02:51:25.582Z,0
2017-01-11T02:52:25.575Z,0
2017-01-11T02:53:25.612Z,0
2017-01-11T02:54:25.657Z,0
2017-01-11T02:55:25.943Z,0
2017-01-11T02:56:25.645Z,0
2017-01-11T02:57:25.674Z,0
2017-01-11T02:58:25.707Z,0
2017-01-11T02:59:25.692Z,0
2017-01-11T03:00:25.569Z,0
2017-01-11T03:01:25.603Z,0
2017-01-11T03:02:25.613Z,0
2017-01-11T03:03:25.694Z,0
2017-01-11T03:04:25.638Z,0
2017-01-11T03:05:25.591Z,0
2017-01-11T03:06:25.573Z,0
2017-01-11T03:07:25.591Z,0
2017-01-11T03:08:25.576Z,0
2017-01-11T03:09:25.602Z,0
2017-01-11T03:10:25.594Z,0
2017-01-11T03:11:25.642Z,0
2017-01-11T03:12:25.668Z,0
2017-01-11T03:13:25.733Z,0
2017-01-11T03:14:25.635Z,0
2017-01-11T03:15:25.601Z,0
2017-01-11T03:16:25.604Z,0
2017-01-11T03:17:25.657Z,0
2017-01-11T03:18:25.605Z,0
2017-01-11T03:19:25.611Z,0
2017-01-11T03:20:25.599Z,0
2017-01-11T03:21:25.627Z,0
2017-01-11T03:22:25.631Z,0
2017-01-11T03:23:25.711Z,0
2017-01-11T03:24:25.657Z,0
2017-01-11T03:25:25.597Z,0
2017-01-11T03:26:25.637Z,0
2017-01-11T03:27:25.642Z,0
2017-01-11T03:28:25.733Z,0
2017-01-11T03:29:25.640Z,0
2017-01-11T03:30:26.701Z,0
2017-01-11T03:31:25.670Z,0
2017-01-11T03:32:25.606Z,0
2017-01-11T03:33:25.634Z,0
2017-01-11T03:34:25.641Z,0
2017-01-11T03:35:25.604Z,0
2017-01-11T03:36:25.597Z,0
2017-01-11T03:37:25.595Z,0
2017-01-11T03:38:25.849Z,0
2017-01-11T03:39:25.664Z,0
2017-01-11T03:40:25.671Z,0
2017-01-11T03:41:25.907Z,0
2017-01-11T03:42:25.651Z,0
2017-01-11T03:43:26.420Z,0
2017-01-11T03:44:25.651Z,0
2017-01-11T03:45:25.664Z,0
2017-01-11T03:46:25.902Z,0
2017-01-11T03:47:25.672Z,0
2017-01-11T03:48:25.604Z,0
2017-01-11T03:49:25.777Z,0
2017-01-11T03:50:25.701Z,0
2017-01-11T03:51:26.968Z,0
2017-01-11T03:52:25.722Z,0
2017-01-11T03:53:25.745Z,0
2017-01-11T03:54:25.656Z,0
2017-01-11T03:55:25.682Z,0
2017-01-11T03:56:25.841Z,0
2017-01-11T03:57:25.680Z,0
2017-01-11T03:58:25.700Z,0
2017-01-11T03:59:25.663Z,0
2017-01-11T04:00:25.699Z,0
2017-01-11T04:01:25.841Z,0
2017-01-11T04:02:25.731Z,0
2017-01-11T04:03:25.617Z,0
2017-01-11T04:04:25.885Z,0
2017-01-11T04:05:25.663Z,0
2017-01-11T04:06:25.704Z,0
2017-01-11T04:07:26.058Z,0
2017-01-11T04:08:26.637Z,0
2017-01-11T04:09:25.649Z,0
2017-01-11T04:10:25.703Z,0
2017-01-11T04:11:25.623Z,0
2017-01-11T04:12:25.714Z,0
2017-01-11T04:13:25.914Z,0
2017-01-11T04:14:25.711Z,0
2017-01-11T04:15:25.699Z,0
2017-01-11T04:16:25.963Z,0
2017-01-11T04:17:25.690Z,0
2017-01-11T04:18:25.728Z,0
2017-01-11T04:19:25.704Z,0
2017-01-11T04:20:25.734Z,0
2017-01-11T04:21:25.673Z,0
2017-01-11T04:22:25.967Z,0
2017-01-11T04:23:26.097Z,0
2017-01-11T04:24:25.743Z,0
2017-01-11T04:25:26.567Z,0
2017-01-11T04:26:25.710Z,0
2017-01-11T04:27:25.657Z,0
2017-01-11T04:28:25.639Z,0
2017-01-11T04:29:25.716Z,0
2017-01-11T04:30:25.680Z,0
2017-01-11T04:31:26.298Z,0
2017-01-11T04:32:25.737Z,0
2017-01-11T04:33:25.722Z,0
2017-01-11T04:34:25.704Z,0
2017-01-11T04:35:25.754Z,0
2017-01-11T04:36:25.687Z,0
2017-01-11T04:37:26.013Z,0
2017-01-11T04:38:25.712Z,0
2017-01-11T04:39:25.661Z,0
2017-01-11T04:40:25.703Z,0
2017-01-11T04:41:25.751Z,0
2017-01-11T04:42:25.669Z,0
2017-01-11T04:43:25.647Z,0
2017-01-11T04:44:25.716Z,0
2017-01-11T04:45:25.730Z,0
2017-01-11T04:46:25.719Z,0
2017-01-11T04:47:25.707Z,0
2017-01-11T04:48:25.697Z,0
2017-01-11T04:49:26.519Z,0
2017-01-11T04:50:25.726Z,0
2017-01-11T04:51:25.719Z,0
2017-01-11T04:52:25.828Z,0
2017-01-11T04:53:25.723Z,0
2017-01-11T04:54:25.694Z,0
2017-01-11T04:55:25.748Z,0
2017-01-11T04:56:25.724Z,0
2017-01-11T04:57:25.745Z,0
2017-01-11T04:58:25.665Z,0
2017-01-11T04:59:25.672Z,0
2017-01-11T05:00:25.675Z,0
2017-01-11T05:01:25.984Z,0
2017-01-11T05:02:25.758Z,0
2017-01-11T05:03:25.644Z,0
2017-01-11T05:04:26.670Z,0
2017-01-11T05:05:25.669Z,0
2017-01-11T05:06:25.688Z,0
2017-01-11T05:07:25.810Z,0
2017-01-11T05:08:25.727Z,0
2017-01-11T05:09:25.704Z,0
2017-01-11T05:10:25.712Z,0
2017-01-11T05:11:25.703Z,0
2017-01-11T05:12:25.682Z,0
2017-01-11T05:13:25.877Z,0
2017-01-11T05:14:25.651Z,0
2017-01-11T05:15:25.723Z,0
2017-01-11T05:16:25.675Z,0
2017-01-11T05:17:25.730Z,0
2017-01-11T05:18:25.740Z,0
2017-01-11T05:19:25.798Z,0
2017-01-11T05:20:25.691Z,0
2017-01-11T05:21:25.733Z,0
2017-01-11T05:22:25.941Z,0
2017-01-11T05:23:25.718Z,0
2017-01-11T05:24:25.699Z,0
2017-01-11T05:25:26.062Z,0
2017-01-11T05:26:25.707Z,0
2017-01-11T05:27:25.782Z,0
2017-01-11T05:28:25.790Z,0
2017-01-11T05:29:25.746Z,0
2017-01-11T05:30:25.665Z,0
2017-01-11T05:31:25.685Z,0
2017-01-11T05:32:25.689Z,0
2017-01-11T05:33:25.717Z,0
2017-01-11T05:34:25.723Z,0
2017-01-11T05:35:25.710Z,0
2017-01-11T05:36:25.739Z,0
2017-01-11T05:37:25.707Z,0
2017-01-11T05:38:25.733Z,0
2017-01-11T05:39:25.745Z,0
2017-01-11T05:40:25.758Z,0
2017-01-11T05:41:25.702Z,0
2017-01-11T05:42:25.717Z,0
2017-01-11T05:43:25.863Z,0
2017-01-11T05:44:25.662Z,0
2017-01-11T05:45:25.809Z,0
2017-01-11T05:46:25.704Z,0
2017-01-11T05:47:25.710Z,0
2017-01-11T05:48:25.804Z,0
2017-01-11T05:49:25.918Z,0
2017-01-11T05:50:25.739Z,0
2017-01-11T05:51:25.828Z,0
2017-01-11T05:52:25.730Z,0
2017-01-11T05:53:25.837Z,0
2017-01-11T05:54:26.808Z,0
2017-01-11T05:55:25.849Z,0
2017-01-11T05:56:25.879Z,0
2017-01-11T05:57:25.834Z,0
2017-01-11T05:58:26.153Z,0
2017-01-11T05:59:25.884Z,0
2017-01-11T06:00:25.922Z,0
2017-01-11T06:01:26.100Z,0
2017-01-11T06:02:25.863Z,0
2017-01-11T06:03:25.791Z,0
2017-01-11T06:04:25.904Z,0
2017-01-11T06:05:25.821Z,0
2017-01-11T06:06:25.903Z,0
2017-01-11T06:07:25.872Z,0
2017-01-11T06:08:25.859Z,0
2017-01-11T06:09:25.891Z,0
2017-01-11T06:10:25.798Z,0
2017-01-11T06:11:26.571Z,0
2017-01-11T06:12:25.825Z,0
2017-01-11T06:13:26.308Z,0
2017-01-11T06:14:25.938Z,0
2017-01-11T06:15:26.079Z,0
2017-01-11T06:16:26.428Z,0
2017-01-11T06:17:25.904Z,0
2017-01-11T06:18:25.846Z,0
2017-01-11T06:19:25.836Z,0
2017-01-11T06:20:25.779Z,0
2017-01-11T06:21:25.801Z,0
2017-01-11T06:22:26.305Z,0
2017-01-11T06:23:25.887Z,0
2017-01-11T06:24:25.758Z,0
2017-01-11T06:25:25.775Z,0
2017-01-11T06:26:25.827Z,0
2017-01-11T06:27:25.753Z,0
2017-01-11T06:28:26.137Z,0
2017-01-11T06:29:25.842Z,0
2017-01-11T06:30:25.831Z,0
2017-01-11T06:31:25.745Z,0
2017-01-11T06:32:25.686Z,0
2017-01-11T06:33:25.761Z,0
2017-01-11T06:34:25.865Z,0
2017-01-11T06:35:25.861Z,0
2017-01-11T06:36:25.932Z,0
2017-01-11T06:37:25.807Z,0
2017-01-11T06:38:26.077Z,0
2017-01-11T06:39:25.991Z,0
2017-01-11T06:40:26.069Z,0
2017-01-11T06:41:25.894Z,0
2017-01-11T06:42:25.873Z,0
2017-01-11T06:43:29.504Z,0
2017-01-11T06:44:25.832Z,0
2017-01-11T06:45:25.932Z,0
2017-01-11T06:46:26.037Z,0
2017-01-11T06:47:25.781Z,0
2017-01-11T06:48:25.714Z,0
2017-01-11T06:49:25.794Z,0
2017-01-11T06:50:25.773Z,0
2017-01-11T06:51:25.765Z,0
2017-01-11T06:52:25.789Z,0
2017-01-11T06:53:26.005Z,0
2017-01-11T06:54:25.807Z,0
2017-01-11T06:55:25.904Z,0
2017-01-11T06:56:25.822Z,0
2017-01-11T06:57:25.810Z,0
2017-01-11T06:58:25.829Z,0
2017-01-11T06:59:25.782Z,0
2017-01-11T07:00:25.775Z,0
2017-01-11T07:01:25.767Z,0
2017-01-11T07:02:25.781Z,0
2017-01-11T07:03:25.884Z,0
2017-01-11T07:04:25.859Z,0
2017-01-11T07:05:26.626Z,0
2017-01-11T07:06:25.829Z,0
2017-01-11T07:07:25.768Z,0
2017-01-11T07:08:25.781Z,0
2017-01-11T07:09:26.719Z,0
2017-01-11T07:10:25.778Z,0
2017-01-11T07:11:25.748Z,0
2017-01-11T07:12:32.833Z,0
2017-01-11T07:13:25.764Z,0
2017-01-11T07:14:25.800Z,0
2017-01-11T07:15:25.812Z,0
2017-01-11T07:16:25.864Z,0
2017-01-11T07:17:26.251Z,0
2017-01-11T07:18:25.934Z,0
2017-01-11T07:19:25.817Z,0
2017-01-11T07:20:25.801Z,0
2017-01-11T07:21:25.747Z,0
2017-01-11T07:22:26.265Z,0
2017-01-11T07:23:25.815Z,0
2017-01-11T07:24:26.057Z,0
2017-01-11T07:25:25.788Z,0
2017-01-11T07:26:25.851Z,0
2017-01-11T07:27:25.951Z,0
2017-01-11T07:28:25.825Z,0
2017-01-11T07:29:25.899Z,0
2017-01-11T07:30:26.663Z,0
2017-01-11T07:31:26.068Z,0
2017-01-11T07:32:26.005Z,0
2017-01-11T07:33:26.273Z,0
2017-01-11T07:34:26.303Z,0
2017-01-11T07:35:25.847Z,0
2017-01-11T07:36:26.130Z,0
2017-01-11T07:37:25.933Z,0
2017-01-11T07:38:26.269Z,0
2017-01-11T07:39:25.837Z,0
2017-01-11T07:40:25.867Z,0
2017-01-11T07:41:25.872Z,0
2017-01-11T07:42:25.840Z,0
2017-01-11T07:43:26.307Z,0
2017-01-11T07:44:25.867Z,0
2017-01-11T07:45:25.826Z,0
2017-01-11T07:46:25.904Z,0
2017-01-11T07:47:25.911Z,0
2017-01-11T07:48:25.846Z,0
2017-01-11T07:49:26.517Z,0
2017-01-11T07:50:26.064Z,5
2017-01-11T07:51:25.821Z,5
2017-01-11T07:52:25.832Z,5
2017-01-11T07:53:25.895Z,5
2017-01-11T07:54:25.973Z,5
2017-01-11T07:55:26.160Z,5
2017-01-11T07:56:25.942Z,5
2017-01-11T07:57:25.831Z,5
2017-01-11T07:58:25.887Z,5
2017-01-11T07:59:26.187Z,10
2017-01-11T08:00:25.883Z,5
2017-01-11T08:01:25.936Z,5
2017-01-11T08:02:26.115Z,5
2017-01-11T08:03:25.834Z,5
2017-01-11T08:04:25.926Z,5
2017-01-11T08:05:25.801Z,5
2017-01-11T08:06:25.765Z,5
2017-01-11T08:07:25.875Z,5
2017-01-11T08:08:25.888Z,5
2017-01-11T08:09:25.871Z,5
2017-01-11T08:10:26.187Z,10
2017-01-11T08:11:25.792Z,10
2017-01-11T08:12:25.797Z,15
2017-01-11T08:13:25.827Z,15
2017-01-11T08:14:25.818Z,10
2017-01-11T08:15:27.260Z,15
2017-01-11T08:16:25.848Z,15
2017-01-11T08:17:25.781Z,20
2017-01-11T08:18:25.848Z,20
2017-01-11T08:19:25.833Z,30
2017-01-11T08:20:25.907Z,30
2017-01-11T08:21:25.809Z,35
2017-01-11T08:22:25.828Z,30
2017-01-11T08:23:25.784Z,35
2017-01-11T08:24:25.937Z,35
2017-01-11T08:25:25.822Z,30
2017-01-11T08:26:25.920Z,25
2017-01-11T08:27:25.856Z,20
2017-01-11T08:28:25.840Z,15
2017-01-11T08:29:25.838Z,20
2017-01-11T08:30:25.787Z,20
2017-01-11T08:31:25.882Z,20
2017-01-11T08:32:25.848Z,15
2017-01-11T08:33:25.841Z,15
2017-01-11T08:34:26.499Z,20
2017-01-11T08:35:25.891Z,20
2017-01-11T08:36:25.827Z,15
2017-01-11T08:37:25.838Z,15
2017-01-11T08:38:25.862Z,15
2017-01-11T08:39:25.850Z,15
2017-01-11T08:40:25.878Z,20
2017-01-11T08:41:25.933Z,25
2017-01-11T08:42:25.782Z,25
2017-01-11T08:43:27.554Z,25
2017-01-11T08:44:25.827Z,25
2017-01-11T08:45:25.873Z,20
2017-01-11T08:46:25.825Z,20
2017-01-11T08:47:25.880Z,20
2017-01-11T08:48:25.873Z,20
2017-01-11T08:49:25.840Z,20
2017-01-11T08:50:25.909Z,20
2017-01-11T08:51:25.878Z,30
2017-01-11T08:52:25.843Z,30
2017-01-11T08:53:25.835Z,30
2017-01-11T08:54:25.888Z,20
2017-01-11T08:55:25.877Z,20
2017-01-11T08:56:25.856Z,20
2017-01-11T08:57:25.882Z,20
2017-01-11T08:58:25.914Z,20
2017-01-11T08:59:25.875Z,20
2017-01-11T09:00:25.812Z,20
2017-01-11T09:01:25.869Z,20
2017-01-11T09:02:25.909Z,20
2017-01-11T09:03:25.874Z,20
2017-01-11T09:04:25.864Z,20
2017-01-11T09:05:25.848Z,25
2017-01-11T09:06:25.820Z,20
2017-01-11T09:07:25.875Z,25
2017-01-11T09:08:25.825Z,20
2017-01-11T09:09:25.872Z,25
2017-01-11T09:10:25.857Z,25
2017-01-11T09:11:25.847Z,25
2017-01-11T09:12:25.921Z,35
2017-01-11T09:13:25.851Z,35
2017-01-11T09:14:25.865Z,35
2017-01-11T09:15:25.843Z,30
2017-01-11T09:16:26.525Z,30
2017-01-11T09:17:25.898Z,35
2017-01-11T09:18:25.894Z,25
2017-01-11T09:19:25.919Z,25
2017-01-11T09:20:25.880Z,25
2017-01-11T09:21:25.891Z,30
2017-01-11T09:22:25.898Z,35
2017-01-11T09:23:25.885Z,35
2017-01-11T09:24:25.855Z,30
2017-01-11T09:25:25.853Z,30
2017-01-11T09:26:26.635Z,25
2017-01-11T09:27:25.893Z,25
2017-01-11T09:28:25.914Z,30
2017-01-11T09:29:25.915Z,30
2017-01-11T09:30:25.845Z,35
2017-01-11T09:31:25.834Z,40
2017-01-11T09:32:25.902Z,40
2017-01-11T09:33:25.861Z,45
2017-01-11T09:34:26.936Z,45
2017-01-11T09:35:25.906Z,40
2017-01-11T09:36:25.867Z,35
2017-01-11T09:37:26.083Z,50
2017-01-11T09:38:26.483Z,50
2017-01-11T09:39:25.879Z,50
2017-01-11T09:40:25.883Z,40
2017-01-11T09:41:25.856Z,40
2017-01-11T09:42:25.840Z,50
2017-01-11T09:43:25.860Z,50
2017-01-11T09:44:25.883Z,45
2017-01-11T09:45:25.875Z,55
2017-01-11T09:46:25.875Z,55
2017-01-11T09:47:25.835Z,55
2017-01-11T09:48:26.184Z,55
2017-01-11T09:49:25.917Z,50
2017-01-11T09:50:27.105Z,60
2017-01-11T09:51:26.615Z,55
2017-01-11T09:52:25.860Z,55
2017-01-11T09:53:25.908Z,60
2017-01-11T09:54:25.935Z,55
2017-01-11T09:55:26.468Z,60
2017-01-11T09:56:25.888Z,65
2017-01-11T09:57:25.902Z,80
2017-01-11T09:58:25.911Z,60
2017-01-11T09:59:26.121Z,45
2017-01-11T10:00:26.983Z,40
2017-01-11T10:01:25.939Z,60
2017-01-11T10:02:26.058Z,50
2017-01-11T10:03:25.892Z,60
2017-01-11T10:04:26.176Z,55
2017-01-11T10:05:25.914Z,55
2017-01-11T10:06:25.930Z,65
2017-01-11T10:07:25.906Z,70
2017-01-11T10:08:25.932Z,65
2017-01-11T10:09:25.979Z,55
2017-01-11T10:10:26.002Z,45
2017-01-11T10:11:26.010Z,40
2017-01-11T10:12:25.960Z,35
2017-01-11T10:13:25.949Z,40
2017-01-11T10:14:26.013Z,35
2017-01-11T10:15:26.418Z,40
2017-01-11T10:16:25.969Z,45
2017-01-11T10:17:25.891Z,50
2017-01-11T10:18:25.977Z,45
2017-01-11T10:19:26.119Z,40
2017-01-11T10:20:25.924Z,40
2017-01-11T10:21:25.960Z,40
2017-01-11T10:22:25.925Z,40
2017-01-11T10:23:26.464Z,45
2017-01-11T10:24:25.945Z,45
2017-01-11T10:25:25.967Z,45
2017-01-11T10:26:25.955Z,50
2017-01-11T10:27:25.963Z,55
2017-01-11T10:28:25.977Z,60
2017-01-11T10:29:26.004Z,60
2017-01-11T10:30:26.805Z,60
2017-01-11T10:31:25.988Z,65
2017-01-11T10:32:26.203Z,50
2017-01-11T10:33:26.004Z,45
2017-01-11T10:34:25.993Z,55
2017-01-11T10:35:25.946Z,55
2017-01-11T10:36:25.926Z,45
2017-01-11T10:37:25.967Z,60
2017-01-11T10:38:25.885Z,60
2017-01-11T10:39:25.898Z,70
2017-01-11T10:40:25.850Z,85
2017-01-11T10:41:25.885Z,95
2017-01-11T10:42:25.924Z,65
2017-01-11T10:43:25.898Z,55
2017-01-11T10:44:25.952Z,45
2017-01-11T10:45:25.899Z,40
2017-01-11T10:46:25.948Z,40
2017-01-11T10:47:25.910Z,35
2017-01-11T10:48:25.898Z,40
2017-01-11T10:49:25.949Z,35
2017-01-11T10:50:25.949Z,30
2017-01-11T10:51:25.902Z,30
2017-01-11T10:52:25.933Z,20
2017-01-11T10:53:25.899Z,20
2017-01-11T10:54:25.924Z,20
2017-01-11T10:55:25.879Z,25
2017-01-11T10:56:25.901Z,30
2017-01-11T10:57:25.920Z,55
2017-01-11T10:58:25.931Z,45
2017-01-11T10:59:26.503Z,50
2017-01-11T11:00:25.885Z,40
2017-01-11T11:01:25.891Z,30
2017-01-11T11:02:25.909Z,25
2017-01-11T11:03:25.931Z,20
2017-01-11T11:04:25.952Z,20
2017-01-11T11:05:25.973Z,20
2017-01-11T11:06:25.934Z,20
2017-01-11T11:07:25.931Z,30
2017-01-11T11:08:25.907Z,35
2017-01-11T11:09:25.981Z,35
2017-01-11T11:10:25.903Z,40
2017-01-11T11:11:25.994Z,65
2017-01-11T11:12:25.951Z,55
2017-01-11T11:13:25.928Z,45
2017-01-11T11:14:25.917Z,35
2017-01-11T11:15:25.917Z,30
2017-01-11T11:16:25.952Z,30
2017-01-11T11:17:25.966Z,30
2017-01-11T11:18:26.174Z,25
2017-01-11T11:19:26.575Z,20
2017-01-11T11:20:26.184Z,25
2017-01-11T11:21:25.956Z,35
2017-01-11T11:22:26.257Z,40
2017-01-11T11:23:25.953Z,50
2017-01-11T11:24:25.959Z,45
2017-01-11T11:25:25.965Z,40
2017-01-11T11:26:26.284Z,35
2017-01-11T11:27:26.396Z,35
2017-01-11T11:28:26.062Z,30
2017-01-11T11:29:25.926Z,40
2017-01-11T11:30:26.290Z,40
2017-01-11T11:31:26.212Z,45
2017-01-11T11:32:26.288Z,40
2017-01-11T11:33:25.989Z,45
2017-01-11T11:34:26.220Z,35
2017-01-11T11:35:25.965Z,35
2017-01-11T11:36:25.915Z,25
2017-01-11T11:37:25.979Z,25
2017-01-11T11:38:26.088Z,25
2017-01-11T11:39:27.435Z,35
2017-01-11T11:40:28.223Z,45
2017-01-11T11:41:25.918Z,40
2017-01-11T11:42:26.191Z,35
2017-01-11T11:43:26.124Z,30
2017-01-11T11:44:25.954Z,30
2017-01-11T11:45:25.989Z,35
2017-01-11T11:46:25.954Z,25
2017-01-11T11:47:25.986Z,30
2017-01-11T11:48:26.194Z,30
2017-01-11T11:49:26.572Z,30
2017-01-11T11:50:25.956Z,30
2017-01-11T11:51:25.959Z,40
2017-01-11T11:52:26.250Z,40
2017-01-11T11:53:25.978Z,55
2017-01-11T11:54:26.119Z,40
2017-01-11T11:55:26.153Z,30
2017-01-11T11:56:25.926Z,25
2017-01-11T11:57:26.137Z,25
2017-01-11T11:58:25.953Z,35
2017-01-11T11:59:25.992Z,30
2017-01-11T12:00:26.289Z,35
2017-01-11T12:01:25.960Z,35
2017-01-11T12:02:25.933Z,40
2017-01-11T12:03:26.134Z,35
2017-01-11T12:04:26.018Z,35
2017-01-11T12:05:25.934Z,35
2017-01-11T12:06:25.976Z,35
2017-01-11T12:07:26.182Z,20
2017-01-11T12:08:25.904Z,20
2017-01-11T12:09:26.112Z,40
2017-01-11T12:10:26.055Z,45
2017-01-11T12:11:26.044Z,40
2017-01-11T12:12:26.008Z,40
2017-01-11T12:13:25.963Z,30
2017-01-11T12:14:26.639Z,45
2017-01-11T12:15:25.949Z,40
2017-01-11T12:16:26.340Z,45
2017-01-11T12:17:25.934Z,50
2017-01-11T12:18:26.016Z,50
2017-01-11T12:19:26.202Z,45
2017-01-11T12:20:26.104Z,40
2017-01-11T12:21:25.982Z,60
2017-01-11T12:22:25.975Z,55
2017-01-11T12:23:26.239Z,40
2017-01-11T12:24:26.316Z,50
2017-01-11T12:25:26.279Z,55
2017-01-11T12:26:25.973Z,60
2017-01-11T12:27:25.947Z,90
2017-01-11T12:28:27.137Z,80
2017-01-11T12:29:26.193Z,100
2017-01-11T12:30:26.196Z,100
2017-01-11T12:31:26.119Z,95
2017-01-11T12:32:26.059Z,100
2017-01-11T12:33:26.035Z,60
2017-01-11T12:34:26.137Z,55
2017-01-11T12:35:25.963Z,50
2017-01-11T12:36:26.144Z,50
2017-01-11T12:37:25.976Z,55
2017-01-11T12:38:26.214Z,60
2017-01-11T12:39:26.001Z,65
2017-01-11T12:40:26.025Z,70
2017-01-11T12:41:25.980Z,65
2017-01-11T12:42:26.027Z,75
2017-01-11T12:43:26.100Z,65
2017-01-11T12:44:26.059Z,65
2017-01-11T12:45:26.204Z,55
2017-01-11T12:46:26.213Z,55
2017-01-11T12:47:26.041Z,50
2017-01-11T12:48:26.024Z,55
2017-01-11T12:49:26.598Z,50
2017-01-11T12:50:26.269Z,50
2017-01-11T12:51:26.031Z,50
2017-01-11T12:52:25.995Z,55
2017-01-11T12:53:29.439Z,65
2017-01-11T12:54:26.091Z,60
2017-01-11T12:55:27.410Z,50
2017-01-11T12:56:26.022Z,50
2017-01-11T12:57:26.646Z,65
2017-01-11T12:58:25.965Z,80
2017-01-11T12:59:26.010Z,85
2017-01-11T13:00:26.050Z,85
2017-01-11T13:01:26.159Z,100
2017-01-11T14:33:25.474Z,55
2017-01-11T14:34:26.111Z,60
2017-01-11T14:35:26.091Z,55
2017-01-11T14:36:26.122Z,55
2017-01-11T14:37:27.690Z,55
2017-01-11T14:38:26.111Z,50
2017-01-11T14:39:26.034Z,50
2017-01-11T14:40:26.152Z,50
2017-01-11T14:41:26.099Z,45
2017-01-11T14:42:26.074Z,45
2017-01-11T14:43:26.106Z,45
2017-01-11T14:44:26.027Z,45
2017-01-11T14:45:26.039Z,45
2017-01-11T14:46:26.091Z,45
2017-01-11T14:47:26.006Z,40
2017-01-11T14:48:26.134Z,35
2017-01-11T14:49:26.779Z,30
2017-01-11T14:50:26.118Z,25
2017-01-11T14:51:26.037Z,25
2017-01-11T14:52:26.067Z,25
2017-01-11T14:53:26.135Z,25
2017-01-11T14:54:26.131Z,25
2017-01-11T14:55:26.136Z,25
2017-01-11T14:56:26.277Z,30
2017-01-11T14:57:29.676Z,30
2017-01-11T14:58:26.674Z,25
2017-01-11T14:59:26.096Z,25
2017-01-11T15:00:26.108Z,25
2017-01-11T15:01:26.619Z,25
2017-01-11T15:02:26.114Z,25
2017-01-11T15:03:26.102Z,25
2017-01-11T15:04:26.125Z,20
2017-01-11T15:05:26.121Z,20
2017-01-11T15:06:26.059Z,20
2017-01-11T15:07:26.059Z,20
2017-01-11T15:08:26.093Z,15
2017-01-11T15:09:26.159Z,15
2017-01-11T15:10:26.198Z,10
2017-01-11T15:11:26.101Z,15
2017-01-11T15:12:26.135Z,10
2017-01-11T15:13:26.263Z,10
2017-01-11T15:14:26.158Z,10
2017-01-11T15:15:26.127Z,10
2017-01-11T15:16:26.153Z,5
2017-01-11T15:17:26.123Z,5
2017-01-11T15:18:26.157Z,5
2017-01-11T15:19:26.166Z,5
2017-01-11T15:20:26.202Z,5
2017-01-11T15:21:26.539Z,5
2017-01-11T15:22:26.408Z,10
2017-01-11T15:23:26.473Z,10
2017-01-11T15:24:26.221Z,10
2017-01-11T15:25:26.192Z,5
2017-01-11T15:26:27.094Z,5
2017-01-11T15:27:26.973Z,5
2017-01-11T15:28:26.920Z,0
2017-01-11T15:29:26.152Z,0
2017-01-11T15:30:26.277Z,5
2017-01-11T15:31:27.307Z,5
2017-01-11T15:32:26.208Z,5
2017-01-11T15:33:26.238Z,5
2017-01-11T15:34:26.338Z,5
2017-01-11T15:35:26.173Z,5
2017-01-11T15:36:26.229Z,5
2017-01-11T15:37:27.846Z,5
2017-01-11T15:38:26.610Z,0
2017-01-11T15:39:26.219Z,0
2017-01-11T15:40:26.280Z,0
2017-01-11T15:41:26.190Z,0
2017-01-11T15:42:26.203Z,0
2017-01-11T15:43:26.134Z,0
2017-01-11T15:44:26.236Z,0
2017-01-11T15:45:26.833Z,0
2017-01-11T15:46:26.142Z,0
2017-01-11T15:47:26.104Z,0
2017-01-11T15:48:26.213Z,0
2017-01-11T15:49:26.190Z,0
2017-01-11T15:50:26.262Z,0
2017-01-11T15:51:26.201Z,0
2017-01-11T15:52:26.152Z,0
2017-01-11T15:53:26.224Z,0
2017-01-11T15:54:26.120Z,0
2017-01-11T15:55:26.685Z,0
2017-01-11T15:56:27.872Z,0
2017-01-11T15:57:26.171Z,0
2017-01-11T15:58:26.136Z,0
2017-01-11T15:59:26.491Z,0
2017-01-11T16:00:26.831Z,0
2017-01-11T16:01:26.158Z,0
2017-01-11T16:02:26.322Z,0
2017-01-11T16:03:26.131Z,0
2017-01-11T16:04:26.356Z,0
2017-01-11T16:05:26.196Z,0
2017-01-11T16:06:26.870Z,0
2017-01-11T16:07:26.185Z,0